createdAt,value
2017-11-26T00:00:25.543Z,8.30
2017-11-26T00:02:59.211Z,8.30
2017-11-26T00:05:32.670Z,8.20
2017-11-26T00:08:06.328Z,8.20
2017-11-26T00:10:39.811Z,8.20
2017-11-26T00:13:13.424Z,8.30
2017-11-26T00:15:47.219Z,8.30
2017-11-26T00:18:20.812Z,8.30
2017-11-26T00:20:55.212Z,8.20
2017-11-26T00:23:29.456Z,8.20
2017-11-26T00:26:03.151Z,8.30
2017-11-26T00:28:36.943Z,8.20
2017-11-26T00:31:10.571Z,8.30
2017-11-26T00:33:44.133Z,8.20
2017-11-26T00:36:17.671Z,8.20
2017-11-26T00:38:51.315Z,8.20
2017-11-26T00:41:24.870Z,8.20
2017-11-26T00:43:58.575Z,8.30
2017-11-26T00:46:32.155Z,8.20
2017-11-26T00:49:05.770Z,8.20
2017-11-26T00:51:39.335Z,8.20
2017-11-26T00:54:13.076Z,8.20
2017-11-26T00:56:46.774Z,8.20
2017-11-26T00:59:21.060Z,8.20
2017-11-26T01:01:54.680Z,8.10
2017-11-26T01:04:28.276Z,8.20
2017-11-26T01:07:02.003Z,8.10
2017-11-26T01:09:35.703Z,8.10
2017-11-26T01:12:09.292Z,8.20
2017-11-26T01:14:42.912Z,8.20
2017-11-26T01:17:16.485Z,8.20
2017-11-26T01:19:50.012Z,8.20
2017-11-26T01:22:30.223Z,8.10
2017-11-26T01:25:04.540Z,8.10
2017-11-26T01:27:38.263Z,8.10
2017-11-26T01:30:11.783Z,8.10
2017-11-26T01:32:46.060Z,8.20
2017-11-26T01:35:19.699Z,8.10
2017-11-26T01:37:53.935Z,8.10
2017-11-26T01:40:27.623Z,8.10
2017-11-26T01:43:01.328Z,8.10
2017-11-26T01:45:35.747Z,8.10
2017-11-26T01:48:10.063Z,8.00
2017-11-26T01:50:43.634Z,8.00
2017-11-26T01:53:17.147Z,8.00
2017-11-26T01:55:50.619Z,8.00
2017-11-26T01:58:24.351Z,8.10
2017-11-26T02:00:57.959Z,8.00
2017-11-26T02:03:31.567Z,7.90
2017-11-26T02:06:05.843Z,8.00
2017-11-26T02:08:39.437Z,7.90
2017-11-26T02:11:13.204Z,8.00
2017-11-26T02:13:46.882Z,8.00
2017-11-26T02:16:21.287Z,8.00
2017-11-26T02:18:55.016Z,8.00
2017-11-26T02:21:29.435Z,8.00
2017-11-26T02:24:02.935Z,7.90
2017-11-26T02:26:36.635Z,7.90
2017-11-26T02:29:10.191Z,7.90
2017-11-26T02:31:55.915Z,7.80
2017-11-26T02:34:41.431Z,7.80
2017-11-26T02:37:14.996Z,7.90
2017-11-26T02:39:48.500Z,7.90
2017-11-26T02:42:22.212Z,8.00
2017-11-26T02:44:56.907Z,7.90
2017-11-26T02:47:30.627Z,7.90
2017-11-26T02:50:04.092Z,7.90
2017-11-26T02:52:37.882Z,7.90
2017-11-26T02:55:11.739Z,8.00
2017-11-26T02:57:45.343Z,8.00
2017-11-26T03:00:18.912Z,7.90
2017-11-26T03:02:52.495Z,8.00
2017-11-26T03:05:26.243Z,8.00
2017-11-26T03:07:59.780Z,8.00
2017-11-26T03:10:33.444Z,8.10
2017-11-26T03:13:07.038Z,8.10
2017-11-26T03:15:40.754Z,8.10
2017-11-26T03:18:14.451Z,8.10
2017-11-26T03:20:48.053Z,8.10
2017-11-26T03:23:21.591Z,8.10
2017-11-26T03:25:55.962Z,8.00
2017-11-26T03:28:30.407Z,8.00
2017-11-26T03:31:04.013Z,8.00
2017-11-26T03:33:37.590Z,8.00
2017-11-26T03:36:11.196Z,8.00
2017-11-26T03:38:44.738Z,8.10
2017-11-26T03:41:19.178Z,8.10
2017-11-26T03:43:52.870Z,8.10
2017-11-26T03:46:26.519Z,8.10
2017-11-26T03:49:00.004Z,8.10
2017-11-26T03:51:33.615Z,8.10
2017-11-26T03:54:08.099Z,8.10
2017-11-26T03:56:42.560Z,8.10
2017-11-26T03:59:16.940Z,8.10
2017-11-26T04:01:50.574Z,8.10
2017-11-26T04:04:24.074Z,8.00
2017-11-26T04:06:57.670Z,8.00
2017-11-26T04:09:31.280Z,8.00
2017-11-26T04:12:05.465Z,8.00
2017-11-26T04:14:39.093Z,8.00
2017-11-26T04:17:12.554Z,7.90
2017-11-26T04:19:46.195Z,7.90
2017-11-26T04:22:19.689Z,7.90
2017-11-26T04:24:53.722Z,7.90
2017-11-26T04:27:27.313Z,7.90
2017-11-26T04:30:00.863Z,7.90
2017-11-26T04:32:34.507Z,7.90
2017-11-26T04:35:08.006Z,7.90
2017-11-26T04:37:41.810Z,7.90
2017-11-26T04:40:16.131Z,7.80
2017-11-26T04:42:49.702Z,7.80
2017-11-26T04:45:23.211Z,7.80
2017-11-26T04:47:56.831Z,7.80
2017-11-26T04:50:30.382Z,7.80
2017-11-26T04:53:04.139Z,7.70
2017-11-26T04:55:37.739Z,7.80
2017-11-26T04:58:11.245Z,7.70
2017-11-26T05:00:44.919Z,7.70
2017-11-26T05:03:19.303Z,7.70
2017-11-26T05:05:52.857Z,7.70
2017-11-26T05:08:26.454Z,7.80
2017-11-26T05:11:00.477Z,7.70
2017-11-26T05:13:34.138Z,7.70
2017-11-26T05:16:07.774Z,7.70
2017-11-26T05:18:41.363Z,7.70
2017-11-26T05:21:14.977Z,7.80
2017-11-26T05:23:49.264Z,7.70
2017-11-26T05:26:22.866Z,7.70
2017-11-26T05:28:57.371Z,7.90
2017-11-26T05:31:31.009Z,7.80
2017-11-26T05:34:05.071Z,7.80
2017-11-26T05:36:38.632Z,7.80
2017-11-26T05:39:12.931Z,7.80
2017-11-26T05:41:46.605Z,7.80
2017-11-26T05:44:20.207Z,7.80
2017-11-26T05:46:53.847Z,7.70
2017-11-26T05:49:29.194Z,7.80
2017-11-26T05:52:03.002Z,7.80
2017-11-26T05:54:36.586Z,7.80
2017-11-26T05:57:10.994Z,7.80
2017-11-26T06:02:45.147Z,7.80
2017-11-26T06:05:18.643Z,7.70
2017-11-26T06:07:52.237Z,7.80
2017-11-26T06:10:26.051Z,7.70
2017-11-26T06:13:00.371Z,7.70
2017-11-26T06:15:34.166Z,7.70
2017-11-26T06:18:07.770Z,7.60
2017-11-26T06:20:41.350Z,7.70
2017-11-26T06:23:15.183Z,7.70
2017-11-26T06:25:48.748Z,7.60
2017-11-26T06:28:22.341Z,7.70
2017-11-26T06:30:55.979Z,7.70
2017-11-26T06:33:29.646Z,7.70
2017-11-26T06:36:03.234Z,7.70
2017-11-26T06:38:36.992Z,7.70
2017-11-26T06:41:10.559Z,7.70
2017-11-26T06:43:44.140Z,7.70
2017-11-26T06:46:17.854Z,7.70
2017-11-26T06:48:51.598Z,7.70
2017-11-26T06:51:25.294Z,7.60
2017-11-26T06:53:58.808Z,7.70
2017-11-26T06:56:33.317Z,7.60
2017-11-26T06:59:06.821Z,7.60
2017-11-26T07:01:40.649Z,7.70
2017-11-26T07:04:14.539Z,7.70
2017-11-26T07:06:48.106Z,7.60
2017-11-26T07:09:21.942Z,7.60
2017-11-26T07:11:55.637Z,7.60
2017-11-26T07:14:29.446Z,7.70
2017-11-26T07:17:02.903Z,7.70
2017-11-26T07:19:36.455Z,7.60
2017-11-26T07:22:10.152Z,7.60
2017-11-26T07:24:43.610Z,7.60
2017-11-26T07:27:17.214Z,7.60
2017-11-26T07:29:50.731Z,7.60
2017-11-26T07:32:24.346Z,7.60
2017-11-26T07:34:58.562Z,7.70
2017-11-26T07:37:32.163Z,7.70
2017-11-26T07:40:05.762Z,7.70
2017-11-26T07:42:39.308Z,7.60
2017-11-26T07:45:12.875Z,7.70
2017-11-26T07:47:46.666Z,7.70
2017-11-26T07:50:20.278Z,7.70
2017-11-26T07:52:53.852Z,7.70
2017-11-26T07:55:27.475Z,7.70
2017-11-26T07:58:01.074Z,7.80
2017-11-26T08:00:34.743Z,7.70
2017-11-26T08:03:09.809Z,7.70
2017-11-26T08:05:43.347Z,7.70
2017-11-26T08:08:17.063Z,7.70
2017-11-26T08:10:50.710Z,7.80
2017-11-26T08:13:24.319Z,7.90
2017-11-26T08:15:57.923Z,7.80
2017-11-26T08:18:31.419Z,7.80
2017-11-26T08:21:05.019Z,7.80
2017-11-26T08:23:39.408Z,7.80
2017-11-26T08:26:13.128Z,7.80
2017-11-26T08:28:46.634Z,7.90
2017-11-26T08:31:20.235Z,7.80
2017-11-26T08:33:53.743Z,7.80
2017-11-26T08:36:27.442Z,7.90
2017-11-26T08:39:01.038Z,7.80
2017-11-26T08:41:34.596Z,7.90
2017-11-26T08:44:08.186Z,7.90
2017-11-26T08:46:41.826Z,7.90
2017-11-26T08:49:15.420Z,7.90
2017-11-26T08:51:49.110Z,7.90
2017-11-26T08:54:22.801Z,7.90
2017-11-26T08:56:56.321Z,7.90
2017-11-26T08:59:29.884Z,7.90
2017-11-26T09:02:04.338Z,7.90
2017-11-26T09:04:38.063Z,7.90
2017-11-26T09:10:18.943Z,8.00
2017-11-26T09:12:52.730Z,8.00
2017-11-26T09:15:26.324Z,8.00
2017-11-26T09:17:59.871Z,8.00
2017-11-26T09:20:34.157Z,8.10
2017-11-26T09:23:07.851Z,8.10
2017-11-26T09:25:41.358Z,8.10
2017-11-26T09:28:14.926Z,8.10
2017-11-26T09:30:49.323Z,8.10
2017-11-26T09:33:23.598Z,8.30
2017-11-26T09:35:57.300Z,8.30
2017-11-26T09:38:31.960Z,8.30
2017-11-26T09:41:05.762Z,8.30
2017-11-26T09:43:40.174Z,8.30
2017-11-26T09:46:13.887Z,8.30
2017-11-26T09:48:47.334Z,8.20
2017-11-26T09:51:21.702Z,8.20
2017-11-26T09:53:55.262Z,8.20
2017-11-26T09:56:28.846Z,8.30
2017-11-26T09:59:02.484Z,8.30
2017-11-26T10:01:36.003Z,8.30
2017-11-26T10:04:09.598Z,8.30
2017-11-26T10:06:44.018Z,8.30
2017-11-26T10:09:17.926Z,8.30
2017-11-26T10:11:57.470Z,8.30
2017-11-26T10:14:31.584Z,8.30
2017-11-26T10:17:06.102Z,8.40
2017-11-26T10:19:40.214Z,8.40
2017-11-26T10:22:13.694Z,8.30
2017-11-26T10:24:47.320Z,8.30
2017-11-26T10:27:20.811Z,8.30
2017-11-26T10:29:54.420Z,8.40
2017-11-26T10:32:27.979Z,8.30
2017-11-26T10:35:01.663Z,8.30
2017-11-26T10:37:35.443Z,8.40
2017-11-26T10:40:09.230Z,8.40
2017-11-26T10:42:43.039Z,8.50
2017-11-26T10:45:16.630Z,8.50
2017-11-26T10:47:50.103Z,8.40
2017-11-26T10:50:23.587Z,8.40
2017-11-26T10:52:57.234Z,8.40
2017-11-26T10:55:30.836Z,8.40
2017-11-26T10:58:04.334Z,8.40
2017-11-26T11:00:38.819Z,8.40
2017-11-26T11:03:12.454Z,8.40
2017-11-26T11:05:45.950Z,8.30
2017-11-26T11:08:20.370Z,8.30
2017-11-26T11:10:54.040Z,8.30
2017-11-26T11:13:27.632Z,8.40
2017-11-26T11:16:01.953Z,8.40
2017-11-26T11:18:35.598Z,8.30
2017-11-26T11:21:10.091Z,8.30
2017-11-26T11:23:43.722Z,8.30
2017-11-26T11:26:17.332Z,8.30
2017-11-26T11:28:51.027Z,8.30
2017-11-26T11:31:25.722Z,8.30
2017-11-26T11:33:59.363Z,8.30
2017-11-26T11:36:33.378Z,8.30
2017-11-26T11:39:07.068Z,8.30
2017-11-26T11:41:40.599Z,8.30
2017-11-26T11:44:14.280Z,8.30
2017-11-26T11:46:47.935Z,8.30
2017-11-26T11:49:22.482Z,8.30
2017-11-26T11:51:56.198Z,8.30
2017-11-26T11:54:30.478Z,8.40
2017-11-26T11:57:04.095Z,8.40
2017-11-26T11:59:38.405Z,8.40
2017-11-26T12:02:11.910Z,8.40
2017-11-26T12:04:46.315Z,8.50
2017-11-26T12:07:19.919Z,8.50
2017-11-26T12:09:53.430Z,8.50
2017-11-26T12:12:27.634Z,8.50
2017-11-26T12:15:01.152Z,8.50
2017-11-26T12:17:34.659Z,8.50
2017-11-26T12:20:09.156Z,8.50
2017-11-26T12:22:42.591Z,8.50
2017-11-26T12:25:16.864Z,8.50
2017-11-26T12:27:50.373Z,8.40
2017-11-26T12:30:24.007Z,8.40
2017-11-26T12:32:58.299Z,8.50
2017-11-26T12:35:31.815Z,8.40
2017-11-26T12:38:05.253Z,8.50
2017-11-26T12:40:38.899Z,8.50
2017-11-26T12:43:12.366Z,8.50
2017-11-26T12:45:45.798Z,8.50
2017-11-26T12:48:19.388Z,8.60
2017-11-26T12:50:52.802Z,8.50
2017-11-26T12:53:26.478Z,8.60
2017-11-26T12:56:00.678Z,8.60
2017-11-26T12:58:34.183Z,8.60
2017-11-26T13:01:07.621Z,8.60
2017-11-26T13:03:41.266Z,8.60
2017-11-26T13:06:14.701Z,8.60
2017-11-26T13:08:49.110Z,8.60
2017-11-26T13:11:22.606Z,8.60
2017-11-26T13:13:56.922Z,8.60
2017-11-26T13:16:30.498Z,8.60
2017-11-26T13:19:04.146Z,8.60
2017-11-26T13:21:37.642Z,8.60
2017-11-26T13:24:11.137Z,8.60
2017-11-26T13:26:44.657Z,8.60
2017-11-26T13:29:18.104Z,8.60
2017-11-26T13:31:52.527Z,8.60
2017-11-26T13:34:26.036Z,8.60
2017-11-26T13:36:59.471Z,8.60
2017-11-26T13:39:33.764Z,8.50
2017-11-26T13:42:07.276Z,8.50
2017-11-26T13:44:41.561Z,8.60
2017-11-26T13:47:15.058Z,8.60
2017-11-26T13:49:49.508Z,8.60
2017-11-26T13:52:22.942Z,8.60
2017-11-26T13:54:56.491Z,8.60
2017-11-26T13:57:30.902Z,8.60
2017-11-26T14:00:04.391Z,8.60
2017-11-26T14:02:38.036Z,8.60
2017-11-26T14:05:11.470Z,8.60
2017-11-26T14:07:45.111Z,8.60
2017-11-26T14:10:19.551Z,8.60
2017-11-26T14:12:53.838Z,8.60
2017-11-26T14:15:28.150Z,8.60
2017-11-26T14:18:01.663Z,8.60
2017-11-26T14:20:35.208Z,8.70
2017-11-26T14:23:09.483Z,8.70
2017-11-26T14:25:43.002Z,8.70
2017-11-26T14:28:16.462Z,8.70
2017-11-26T14:30:50.004Z,8.60
2017-11-26T14:33:24.303Z,8.70
2017-11-26T14:35:58.506Z,8.70
2017-11-26T14:38:32.016Z,8.70
2017-11-26T14:41:05.527Z,8.70
2017-11-26T14:43:39.807Z,8.60
2017-11-26T14:46:13.326Z,8.60
2017-11-26T14:48:46.838Z,8.60
2017-11-26T14:51:21.117Z,8.60
2017-11-26T14:53:54.632Z,8.60
2017-11-26T14:56:28.836Z,8.50
2017-11-26T14:59:02.314Z,8.50
2017-11-26T15:01:35.952Z,8.60
2017-11-26T15:04:09.546Z,8.60
2017-11-26T15:06:43.746Z,8.60
2017-11-26T15:09:17.254Z,8.50
2017-11-26T15:11:50.766Z,8.60
2017-11-26T15:14:24.966Z,8.50
2017-11-26T15:16:58.458Z,8.50
2017-11-26T15:19:32.086Z,8.50
2017-11-26T15:22:05.526Z,8.50
2017-11-26T15:24:39.042Z,8.50
2017-11-26T15:27:12.474Z,8.50
2017-11-26T15:29:46.220Z,8.50
2017-11-26T15:32:19.839Z,8.50
2017-11-26T15:34:53.488Z,8.50
2017-11-26T15:37:27.885Z,8.40
2017-11-26T15:40:01.386Z,8.40
2017-11-26T15:42:35.582Z,8.40
2017-11-26T15:45:09.091Z,8.40
2017-11-26T15:47:42.806Z,8.40
2017-11-26T15:50:17.224Z,8.40
2017-11-26T15:52:50.742Z,8.40
2017-11-26T15:55:25.154Z,8.30
2017-11-26T15:57:58.679Z,8.30
2017-11-26T16:00:32.146Z,8.30
2017-11-26T16:03:05.779Z,8.30
2017-11-26T16:05:39.417Z,8.30
2017-11-26T16:08:12.943Z,8.30
2017-11-26T16:10:46.462Z,8.30
2017-11-26T16:13:20.659Z,8.30
2017-11-26T16:15:54.158Z,8.30
2017-11-26T16:18:27.675Z,8.30
2017-11-26T16:21:01.110Z,8.30
2017-11-26T16:23:34.556Z,8.30
2017-11-26T16:26:08.977Z,8.30
2017-11-26T16:28:42.477Z,8.20
2017-11-26T16:31:16.686Z,8.20
2017-11-26T16:33:50.198Z,8.20
2017-11-26T16:36:23.635Z,8.20
2017-11-26T16:38:57.301Z,8.20
2017-11-26T16:41:31.043Z,8.20
2017-11-26T16:44:04.495Z,8.30
2017-11-26T16:46:38.790Z,8.30
2017-11-26T16:49:12.298Z,8.30
2017-11-26T16:51:46.496Z,8.20
2017-11-26T16:54:20.009Z,8.20
2017-11-26T16:56:53.434Z,8.20
2017-11-26T16:59:27.722Z,8.30
2017-11-26T17:02:01.321Z,8.20
2017-11-26T17:04:34.968Z,8.20
2017-11-26T17:07:08.394Z,8.20
2017-11-26T17:09:42.027Z,8.20
2017-11-26T17:12:15.883Z,8.20
2017-11-26T17:14:49.354Z,8.20
2017-11-26T17:17:22.819Z,8.30
2017-11-26T17:19:56.407Z,8.30
2017-11-26T17:22:29.918Z,8.20
2017-11-26T17:25:03.442Z,8.20
2017-11-26T17:27:37.751Z,8.20
2017-11-26T17:30:12.075Z,8.20
2017-11-26T17:32:46.283Z,8.20
2017-11-26T17:35:19.902Z,8.20
2017-11-26T17:37:54.181Z,8.30
2017-11-26T17:40:27.667Z,8.30
2017-11-26T17:43:01.123Z,8.20
2017-11-26T17:45:34.774Z,8.20
2017-11-26T17:48:08.407Z,8.20
2017-11-26T17:50:42.814Z,8.10
2017-11-26T17:53:16.334Z,8.10
2017-11-26T17:55:49.978Z,8.20
2017-11-26T17:58:23.499Z,8.20
2017-11-26T18:00:57.035Z,8.20
2017-11-26T18:03:30.478Z,8.20
2017-11-26T18:06:04.076Z,8.20
2017-11-26T18:08:37.508Z,8.20
2017-11-26T18:11:11.178Z,8.20
2017-11-26T18:13:44.611Z,8.20
2017-11-26T18:16:18.283Z,8.20
2017-11-26T18:18:51.799Z,8.20
2017-11-26T18:21:25.453Z,8.20
2017-11-26T18:23:59.083Z,8.20
2017-11-26T18:26:32.598Z,8.20
2017-11-26T18:29:06.119Z,8.10
2017-11-26T18:31:39.579Z,8.20
2017-11-26T18:34:13.122Z,8.20
2017-11-26T18:36:46.563Z,8.20
2017-11-26T18:39:20.123Z,8.10
2017-11-26T18:41:54.407Z,8.10
2017-11-26T18:44:27.910Z,8.10
2017-11-26T18:47:01.340Z,8.10
2017-11-26T18:49:34.842Z,8.10
2017-11-26T18:52:08.283Z,8.20
2017-11-26T18:54:41.803Z,8.10
2017-11-26T18:57:15.231Z,8.10
2017-11-26T18:59:48.783Z,8.10
2017-11-26T19:02:23.015Z,8.10
2017-11-26T19:04:56.533Z,8.10
2017-11-26T19:07:30.934Z,8.10
2017-11-26T19:10:04.447Z,8.10
2017-11-26T19:12:37.907Z,8.10
2017-11-26T19:15:11.586Z,8.10
2017-11-26T19:17:45.006Z,8.00
2017-11-26T19:20:18.510Z,8.00
2017-11-26T19:22:51.951Z,8.00
2017-11-26T19:25:26.351Z,8.10
2017-11-26T19:27:59.850Z,8.10
2017-11-26T19:30:34.263Z,8.10
2017-11-26T19:33:07.962Z,8.10
2017-11-26T19:35:42.402Z,8.10
2017-11-26T19:38:15.885Z,8.10
2017-11-26T19:40:49.382Z,8.10
2017-11-26T19:43:22.898Z,8.20
2017-11-26T19:45:57.311Z,8.20
2017-11-26T19:48:31.719Z,8.20
2017-11-26T19:51:05.219Z,8.20
2017-11-26T19:53:38.872Z,8.20
2017-11-26T19:56:12.330Z,8.30
2017-11-26T19:59:01.603Z,8.20
2017-11-26T20:01:35.089Z,8.30
2017-11-26T20:04:08.539Z,8.30
2017-11-26T20:06:42.123Z,8.30
2017-11-26T20:09:15.578Z,8.30
2017-11-26T20:11:49.206Z,8.30
2017-11-26T20:14:23.411Z,8.30
2017-11-26T20:16:56.927Z,8.30
2017-11-26T20:19:30.384Z,8.30
2017-11-26T20:22:04.708Z,8.30
2017-11-26T20:24:38.298Z,8.30
2017-11-26T20:27:11.942Z,8.40
2017-11-26T20:29:46.222Z,8.40
2017-11-26T20:32:19.719Z,8.30
2017-11-26T20:34:53.295Z,8.30
2017-11-26T20:37:26.744Z,8.30
2017-11-26T20:40:01.149Z,8.30
2017-11-26T20:42:34.630Z,8.30
2017-11-26T20:45:08.138Z,8.40
2017-11-26T20:47:42.358Z,8.30
2017-11-26T20:50:15.867Z,8.30
2017-11-26T20:52:50.072Z,8.40
2017-11-26T20:55:23.567Z,8.40
2017-11-26T20:57:57.087Z,8.40
2017-11-26T21:00:30.756Z,8.30
2017-11-26T21:03:04.388Z,8.30
2017-11-26T21:05:38.722Z,8.40
2017-11-26T21:08:12.915Z,8.40
2017-11-26T21:10:46.447Z,8.40
2017-11-26T21:13:19.879Z,8.40
2017-11-26T21:15:53.402Z,8.40
2017-11-26T21:18:26.830Z,8.50
2017-11-26T21:21:01.236Z,8.50
2017-11-26T21:23:34.686Z,8.40
2017-11-26T21:26:08.310Z,8.40
2017-11-26T21:28:41.958Z,8.40
2017-11-26T21:31:15.398Z,8.50
2017-11-26T21:33:48.875Z,8.50
2017-11-26T21:36:22.303Z,8.40
2017-11-26T21:38:55.934Z,8.40
2017-11-26T21:41:29.444Z,8.40
2017-11-26T21:44:02.875Z,8.40
2017-11-26T21:46:36.319Z,8.40
2017-11-26T21:49:09.779Z,8.40
2017-11-26T21:51:43.327Z,8.30
2017-11-26T21:54:16.759Z,8.30
2017-11-26T21:56:50.425Z,8.30
2017-11-26T21:59:24.066Z,8.30
2017-11-26T22:01:57.721Z,8.30
2017-11-26T22:04:31.916Z,8.30
2017-11-26T22:07:05.419Z,8.20
2017-11-26T22:09:38.855Z,8.30
2017-11-26T22:12:13.145Z,8.20
2017-11-26T22:14:47.355Z,8.30
2017-11-26T22:17:20.865Z,8.20
2017-11-26T22:19:54.367Z,8.30
2017-11-26T22:22:28.006Z,8.20
2017-11-26T22:25:01.451Z,8.30
2017-11-26T22:27:34.979Z,8.20
2017-11-26T22:30:08.402Z,8.30
2017-11-26T22:32:41.950Z,8.30
2017-11-26T22:35:16.349Z,8.30
2017-11-26T22:37:49.882Z,8.20
2017-11-26T22:40:23.326Z,8.20
2017-11-26T22:42:56.963Z,8.10
2017-11-26T22:45:31.362Z,8.10
2017-11-26T22:48:04.871Z,8.10
2017-11-26T22:50:39.302Z,8.20
2017-11-26T22:53:14.122Z,8.20
2017-11-26T22:55:47.759Z,8.20
2017-11-26T22:58:21.255Z,8.20
2017-11-26T23:00:54.918Z,8.20
2017-11-26T23:03:29.478Z,8.30
2017-11-26T23:06:03.027Z,8.20
2017-11-26T23:08:36.475Z,8.20
2017-11-26T23:11:10.082Z,8.20
2017-11-26T23:13:43.735Z,8.20
2017-11-26T23:16:17.283Z,8.20
2017-11-26T23:18:51.074Z,8.30
2017-11-26T23:21:25.462Z,8.20
2017-11-26T23:23:59.791Z,8.10
2017-11-26T23:26:33.523Z,8.10
2017-11-26T23:29:07.018Z,8.10
2017-11-26T23:31:41.040Z,8.10
2017-11-26T23:34:14.734Z,8.20
2017-11-26T23:36:48.171Z,8.20
2017-11-26T23:39:22.560Z,8.20
2017-11-26T23:41:56.258Z,8.20
2017-11-26T23:44:29.859Z,8.20
2017-11-26T23:47:03.563Z,8.20
2017-11-26T23:49:37.226Z,8.20
2017-11-26T23:52:10.818Z,8.10
2017-11-26T23:54:44.471Z,8.10
2017-11-26T23:57:18.066Z,8.10
2017-11-26T23:59:51.767Z,8.10
